Time;durP1;ratioP1;P1;durP2;ratioP2;P2;SDS_P1;SDS_P2;PMS_P1;PMS_P2;Temp;Humidity;BMP_temperature;BMP_pressure;BME280_temperature;BME280_humidity;BME280_pressure;Samples;Min_cycle;Max_cycle;Signal;HPM_P1;HPM_P2
2024/01/23 00:02:52;;;;;;;6.25;1.38;;;;;;;6.24;60.85;100148.59;10523054;28;20284;-64
2024/01/23 00:07:54;;;;;;;6.82;1.30;;;;;;;6.31;60.91;100155.25;10537302;27;20056;-64
2024/01/23 00:12:56;;;;;;;3.20;1.27;;;;;;;6.37;61.07;100148.97;10522152;27;20102;-65
2024/01/23 00:17:58;;;;;;;4.18;1.30;;;;;;;6.31;61.13;100149.19;10519848;28;20514;-65
2024/01/23 00:23:00;;;;;;;3.95;1.45;;;;;;;6.33;61.44;100150.84;10519920;28;20056;-65
2024/01/23 00:28:03;;;;;;;6.93;1.90;;;;;;;6.43;61.35;100145.31;10521705;27;20044;-64
2024/01/23 00:33:05;;;;;;;1.90;0.95;;;;;;;6.50;61.37;100138.94;10501223;28;20051;-64
2024/01/23 00:38:07;;;;;;;3.72;1.70;;;;;;;6.47;61.85;100147.69;10519077;28;20127;-64
2024/01/23 00:43:12;;;;;;;3.65;1.10;;;;;;;6.51;61.62;100153.63;10506689;28;20132;-65
2024/01/23 00:48:14;;;;;;;6.90;1.95;;;;;;;6.33;61.70;100175.97;10520465;28;20032;-64
2024/01/23 00:53:16;;;;;;;6.85;1.45;;;;;;;6.41;61.28;100188.69;10519266;28;20048;-64
2024/01/23 00:58:18;;;;;;;4.55;1.38;;;;;;;6.37;61.02;100207.88;10520664;28;20040;-64
2024/01/23 01:03:20;;;;;;;5.10;1.15;;;;;;;6.42;60.63;100204.19;10542473;27;20043;-65
2024/01/23 01:08:22;;;;;;;4.57;1.50;;;;;;;6.35;61.12;100210.50;10526987;27;20068;-64
2024/01/23 01:13:24;;;;;;;6.03;1.33;;;;;;;6.32;60.98;100213.25;10520949;28;20229;-64
2024/01/23 01:18:26;;;;;;;4.88;1.20;;;;;;;6.18;61.21;100215.47;10518637;28;20131;-64
2024/01/23 01:23:28;;;;;;;6.97;1.85;;;;;;;6.32;60.96;100219.28;10502046;28;20043;-64
2024/01/23 01:28:30;;;;;;;2.53;0.93;;;;;;;6.34;60.99;100212.28;10502520;28;20119;-64
2024/01/23 01:33:32;;;;;;;6.10;1.85;;;;;;;6.35;60.47;100231.28;10521444;28;20407;-64
2024/01/23 01:38:35;;;;;;;7.03;1.20;;;;;;;6.45;60.59;100234.41;10521666;28;20044;-65
2024/01/23 01:43:48;;;;;;;5.30;1.70;;;;;;;6.29;60.43;100244.50;10518353;28;20047;-64
2024/01/23 01:48:51;;;;;;;3.75;1.10;;;;;;;6.16;60.66;100253.66;10515513;28;20812;-64
2024/01/23 01:53:55;;;;;;;6.30;1.83;;;;;;;6.14;60.93;100238.09;10517690;28;20052;-66
2024/01/23 01:58:57;;;;;;;3.05;1.35;;;;;;;6.07;61.04;100244.44;10517908;28;20044;-65
2024/01/23 02:03:59;;;;;;;4.40;1.50;;;;;;;5.96;61.22;100250.94;10516992;28;20231;-64
2024/01/23 02:09:02;;;;;;;3.63;1.70;;;;;;;5.94;61.07;100245.75;10522547;28;20056;-64
2024/01/23 02:14:04;;;;;;;7.40;2.00;;;;;;;5.90;60.84;100257.16;10515807;28;20100;-66
2024/01/23 02:19:06;;;;;;;2.15;1.40;;;;;;;5.79;61.22;100264.50;10516521;28;20123;-64
2024/01/23 02:24:09;;;;;;;7.07;1.77;;;;;;;5.73;61.42;100271.63;10526142;28;20040;-65
2024/01/23 02:29:11;;;;;;;5.40;1.50;;;;;;;5.83;61.16;100286.00;10528091;28;20044;-65
2024/01/23 02:34:13;;;;;;;5.38;1.63;;;;;;;5.68;61.69;100286.50;10524346;28;20048;-65
2024/01/23 02:39:15;;;;;;;5.13;1.92;;;;;;;5.82;61.26;100312.88;10529470;28;20052;-64
2024/01/23 02:44:17;;;;;;;5.88;1.40;;;;;;;5.73;61.47;100301.03;10529643;28;20764;-64
2024/01/23 02:49:19;;;;;;;3.88;1.85;;;;;;;5.72;61.34;100330.47;10523791;28;20516;-65
2024/01/23 02:54:21;;;;;;;3.30;0.90;;;;;;;5.70;61.35;100339.19;10528919;27;20040;-65
2024/01/23 02:59:23;;;;;;;2.67;1.73;;;;;;;5.69;61.28;100338.38;10527333;27;20121;-64
2024/01/23 03:04:25;;;;;;;3.80;0.80;;;;;;;5.69;60.90;100355.69;10521839;27;20308;-65
2024/01/23 03:09:27;;;;;;;4.47;1.55;;;;;;;5.74;60.22;100364.19;10522787;28;20043;-64
2024/01/23 03:14:29;;;;;;;4.90;1.10;;;;;;;5.90;60.31;100397.34;10509318;28;20043;-64
2024/01/23 03:19:31;;;;;;;5.57;2.17;;;;;;;6.03;59.98;100383.06;10528962;28;20135;-65
2024/01/23 03:24:36;;;;;;;3.75;0.88;;;;;;;5.93;59.74;100376.47;10525030;28;20040;-64
2024/01/23 03:29:44;;;;;;;6.55;1.20;;;;;;;5.98;59.31;100399.69;10522262;28;20043;-64
2024/01/23 03:34:46;;;;;;;4.85;1.35;;;;;;;6.03;59.29;100418.53;10522279;28;20215;-65
2024/01/23 03:39:48;;;;;;;2.75;1.30;;;;;;;6.18;59.72;100444.88;10523132;28;20514;-64
2024/01/23 03:44:50;;;;;;;6.20;1.70;;;;;;;6.05;60.81;100472.13;10522259;28;20042;-65
2024/01/23 03:49:52;;;;;;;0.88;0.63;;;;;;;5.89;61.75;100470.06;10526420;28;20044;-65
2024/01/23 03:54:54;;;;;;;4.18;1.63;;;;;;;5.85;62.00;100481.44;10521793;28;20650;-64
2024/01/23 03:59:56;;;;;;;9.57;1.58;;;;;;;5.61;62.52;100493.47;10520973;28;20058;-64
2024/01/23 04:04:58;;;;;;;4.45;1.45;;;;;;;5.63;62.12;100496.00;10520042;28;20109;-64
2024/01/23 04:10:01;;;;;;;2.10;1.30;;;;;;;5.34;62.94;100491.69;10525365;28;20048;-65
2024/01/23 04:15:05;;;;;;;6.43;1.15;;;;;;;5.37;62.73;100499.38;10520599;28;20365;-64
2024/01/23 04:20:07;;;;;;;4.25;1.50;;;;;;;5.46;62.38;100504.28;10522051;28;20048;-64
2024/01/23 04:25:11;;;;;;;3.72;1.05;;;;;;;5.49;62.23;100519.78;10528557;28;20058;-64
2024/01/23 04:30:13;;;;;;;2.78;1.08;;;;;;;5.49;61.78;100522.38;10508739;28;20412;-64
2024/01/23 04:35:16;;;;;;;5.43;1.15;;;;;;;5.37;61.57;100551.25;10519619;28;20405;-64
2024/01/23 04:40:18;;;;;;;2.65;1.10;;;;;;;5.25;61.51;100552.44;10525047;28;20411;-64
2024/01/23 04:45:20;;;;;;;1.55;0.80;;;;;;;5.05;61.62;100548.69;10541972;27;20039;-64
2024/01/23 04:50:22;;;;;;;4.05;1.00;;;;;;;5.12;61.23;100565.78;10507453;28;20152;-63
2024/01/23 04:55:24;;;;;;;5.95;2.13;;;;;;;5.05;61.21;100566.84;10499812;28;20055;-64
2024/01/23 05:00:26;;;;;;;5.18;1.95;;;;;;;5.00;61.36;100571.31;10525477;28;20567;-63
2024/01/23 05:05:31;;;;;;;2.42;1.13;;;;;;;5.00;61.51;100579.94;10523204;28;20036;-63
2024/01/23 05:10:33;;;;;;;4.10;1.98;;;;;;;4.87;61.82;100601.03;10505800;28;20044;-63
2024/01/23 05:15:35;;;;;;;2.97;1.00;;;;;;;4.92;61.79;100619.91;10520829;28;20046;-63
2024/01/23 05:20:37;;;;;;;5.55;2.03;;;;;;;4.78;62.23;100635.78;10502941;28;20145;-64
2024/01/23 05:25:41;;;;;;;2.80;1.25;;;;;;;4.89;61.96;100633.78;10522528;28;20051;-64
2024/01/23 05:30:43;;;;;;;3.92;1.80;;;;;;;4.79;62.14;100649.59;10506292;28;20044;-64
2024/01/23 05:35:45;;;;;;;5.45;1.92;;;;;;;4.70;62.57;100661.03;10518306;28;20083;-65
2024/01/23 05:40:47;;;;;;;5.45;1.40;;;;;;;4.74;62.41;100665.25;10518555;28;20059;-63
2024/01/23 05:45:49;;;;;;;7.00;1.55;;;;;;;4.62;62.69;100675.91;10501150;28;20480;-64
2024/01/23 05:50:51;;;;;;;4.68;1.77;;;;;;;4.59;62.71;100695.00;10500399;28;20054;-65
2024/01/23 05:55:53;;;;;;;4.35;1.33;;;;;;;4.56;63.25;100699.38;10530319;28;20469;-64
2024/01/23 06:00:57;;;;;;;2.92;1.17;;;;;;;4.51;63.25;100709.88;10532640;28;20051;-64
2024/01/23 06:05:59;;;;;;;5.68;1.73;;;;;;;4.50;63.34;100718.50;10533019;28;20047;-64
2024/01/23 06:11:03;;;;;;;10.50;1.75;;;;;;;4.51;63.11;100721.97;10534199;28;20040;-64
2024/01/23 06:16:05;;;;;;;2.60;1.70;;;;;;;4.46;63.16;100737.59;10532859;28;20064;-65
2024/01/23 06:21:07;;;;;;;5.22;1.98;;;;;;;4.39;63.06;100743.78;10531091;28;20135;-64
2024/01/23 06:26:09;;;;;;;4.90;1.55;;;;;;;4.40;63.01;100758.44;10513840;28;20579;-64
2024/01/23 06:31:12;;;;;;;4.03;1.42;;;;;;;4.47;62.77;100759.19;10512497;28;20335;-65
2024/01/23 06:36:14;;;;;;;5.25;1.45;;;;;;;4.41;62.55;100777.44;10515468;28;20093;-65
2024/01/23 06:41:16;;;;;;;2.90;1.38;;;;;;;4.37;62.74;100788.75;10530442;28;20060;-64
2024/01/23 06:46:18;;;;;;;4.20;1.25;;;;;;;4.51;62.80;100804.84;10531635;28;20484;-64
2024/01/23 06:51:21;;;;;;;5.45;2.20;;;;;;;4.44;62.90;100809.31;10537335;27;20640;-64
2024/01/23 06:56:23;;;;;;;4.30;1.30;;;;;;;4.36;62.97;100808.59;10533259;27;20048;-64
2024/01/23 07:01:26;;;;;;;7.78;1.52;;;;;;;4.40;62.94;100825.78;10514468;27;20044;-64
2024/01/23 07:06:28;;;;;;;3.58;1.50;;;;;;;4.35;63.00;100830.19;10523157;28;20052;-65
2024/01/23 07:11:30;;;;;;;5.05;1.73;;;;;;;4.33;63.24;100854.44;10542292;27;20326;-64
2024/01/23 07:16:32;;;;;;;5.18;1.80;;;;;;;4.37;63.14;100862.09;10524878;28;20055;-65
2024/01/23 07:21:34;;;;;;;8.95;1.98;;;;;;;4.41;63.23;100857.72;10520688;28;20441;-64
2024/01/23 07:26:37;;;;;;;6.55;1.50;;;;;;;4.42;63.00;100862.00;10527750;28;20488;-64
2024/01/23 07:31:39;;;;;;;8.60;1.77;;;;;;;4.33;63.31;100885.50;10491697;27;20138;-64
2024/01/23 07:36:42;;;;;;;5.82;1.80;;;;;;;4.35;63.28;100897.53;10503200;28;20083;-64
2024/01/23 07:41:44;;;;;;;7.88;3.17;;;;;;;4.39;63.10;100898.34;10522442;28;20044;-64
2024/01/23 07:46:47;;;;;;;8.82;2.08;;;;;;;4.47;62.86;100899.91;10502420;28;20054;-66
2024/01/23 07:51:51;;;;;;;3.65;1.75;;;;;;;4.52;62.77;100907.56;10522562;28;20040;-66
2024/01/23 07:56:53;;;;;;;5.53;1.40;;;;;;;4.46;62.98;100905.94;10501646;28;20633;-66
2024/01/23 08:01:55;;;;;;;6.38;1.23;;;;;;;4.72;62.53;100902.00;10501361;28;20495;-66
2024/01/23 08:06:57;;;;;;;4.57;1.50;;;;;;;4.69;62.32;100918.47;10520189;28;20044;-66
2024/01/23 08:11:59;;;;;;;6.63;1.80;;;;;;;4.62;62.33;100928.06;10499021;28;20291;-67
2024/01/23 08:17:01;;;;;;;5.63;1.73;;;;;;;4.60;62.32;100929.84;10519871;28;20052;-66
2024/01/23 08:22:04;;;;;;;8.32;1.88;;;;;;;4.70;62.10;100941.75;10519217;28;20143;-67
2024/01/23 08:27:06;;;;;;;7.65;2.10;;;;;;;4.88;61.86;100948.31;10519425;28;20051;-66
2024/01/23 08:32:08;;;;;;;4.18;2.28;;;;;;;5.11;61.59;100951.25;10501135;28;20040;-67
2024/01/23 08:37:10;;;;;;;5.63;1.73;;;;;;;5.14;61.29;100958.13;10499673;28;20055;-66
2024/01/23 08:42:12;;;;;;;5.85;1.73;;;;;;;5.20;61.12;100963.19;10518135;28;20060;-66
2024/01/23 08:47:14;;;;;;;8.80;2.08;;;;;;;5.26;60.89;100960.44;10518913;28;20529;-66
2024/01/23 08:52:16;;;;;;;11.18;1.67;;;;;;;5.40;60.82;100961.84;10519105;27;20101;-66
2024/01/23 08:57:20;;;;;;;4.88;1.50;;;;;;;5.52;60.42;100976.28;10500583;28;20067;-67
2024/01/23 09:02:23;;;;;;;4.50;1.40;;;;;;;5.66;59.53;100978.56;10518053;27;20666;-66
2024/01/23 09:07:25;;;;;;;11.45;2.20;;;;;;;5.79;59.82;100987.78;10517936;28;20047;-67
2024/01/23 09:12:29;;;;;;;6.78;1.67;;;;;;;5.96;59.70;101002.06;10518729;28;20056;-66
2024/01/23 09:17:31;;;;;;;5.03;1.50;;;;;;;6.03;59.34;101014.00;10519137;28;20412;-66
2024/01/23 09:22:33;;;;;;;4.10;1.63;;;;;;;6.13;59.21;101014.63;10518776;28;20068;-67
2024/01/23 09:27:35;;;;;;;8.10;2.17;;;;;;;6.11;58.96;101000.84;10516661;28;20130;-66
2024/01/23 09:32:52;;;;;;;7.15;2.30;;;;;;;6.10;58.52;101017.31;10524540;28;20584;-67
2024/01/23 09:37:54;;;;;;;6.32;2.42;;;;;;;6.09;58.92;101018.19;10518122;28;21084;-66
2024/01/23 09:42:57;;;;;;;6.38;1.88;;;;;;;6.16;58.35;101032.75;10522925;28;20160;-66
2024/01/23 09:47:59;;;;;;;10.95;2.28;;;;;;;6.15;58.47;101052.69;10524339;28;20047;-66
2024/01/23 09:53:03;;;;;;;5.63;1.90;;;;;;;6.40;58.33;101054.69;10519157;28;20549;-66
2024/01/23 09:58:07;;;;;;;7.57;1.65;;;;;;;6.42;57.02;101039.94;10520583;28;20533;-66
2024/01/23 10:03:11;;;;;;;6.50;1.55;;;;;;;6.55;57.65;101036.13;10517850;28;20055;-67
2024/01/23 10:08:14;;;;;;;7.57;1.40;;;;;;;6.66;57.30;101024.56;10516970;28;20547;-66
2024/01/23 10:13:16;;;;;;;3.20;1.77;;;;;;;6.73;57.21;101039.13;10498830;28;20042;-66
2024/01/23 10:18:18;;;;;;;4.38;1.42;;;;;;;6.80;57.14;101044.97;10519895;28;20117;-67
2024/01/23 10:23:20;;;;;;;6.03;1.60;;;;;;;7.10;56.44;101049.38;10498086;28;20532;-67
2024/01/23 10:28:22;;;;;;;6.28;2.15;;;;;;;7.60;55.99;101050.50;10498410;28;20412;-67
2024/01/23 10:33:24;;;;;;;6.93;1.90;;;;;;;7.48;55.24;101054.34;10515902;28;20079;-67
2024/01/23 10:38:27;;;;;;;6.55;1.27;;;;;;;7.74;54.48;101059.63;10506020;28;20146;-67
2024/01/23 10:43:30;;;;;;;8.75;1.70;;;;;;;7.64;54.44;101060.78;10504549;28;20036;-67
2024/01/23 10:48:33;;;;;;;4.55;1.33;;;;;;;7.74;53.91;101075.22;10505968;28;20093;-66
2024/01/23 10:54:01;;;;;;;5.70;2.08;;;;;;;7.81;52.54;101063.72;10531949;28;20329;-66
2024/01/23 10:59:13;;;;;;;10.10;1.77;;;;;;;7.83;53.42;101067.13;10523910;28;20501;-66
2024/01/23 11:04:21;;;;;;;8.15;2.22;;;;;;;7.69;53.77;101078.88;10525584;28;20028;-66
2024/01/23 11:09:29;;;;;;;5.45;1.80;;;;;;;7.73;54.29;101099.56;10524872;28;20032;-66
2024/01/23 11:14:50;;;;;;;4.50;1.55;;;;;;;7.51;53.28;101095.88;10523084;28;20043;-66
2024/01/23 11:20:07;;;;;;;3.25;1.33;;;;;;;7.78;53.12;101094.22;10520688;28;20048;-66
2024/01/23 11:25:10;;;;;;;4.00;1.23;;;;;;;7.61;53.34;101092.09;10522766;28;20050;-66
2024/01/23 11:30:13;;;;;;;7.30;2.05;;;;;;;7.58;53.88;101081.78;10523322;28;20160;-66
2024/01/23 11:35:15;;;;;;;5.78;1.30;;;;;;;7.72;53.30;101068.34;10507021;28;20048;-66
2024/01/23 11:40:27;;;;;;;8.60;2.15;;;;;;;7.56;52.08;101061.91;10523795;28;20076;-66
2024/01/23 11:45:37;;;;;;;6.97;1.77;;;;;;;7.75;52.74;101069.13;10504849;28;20032;-66
2024/01/23 11:50:44;;;;;;;5.95;1.45;;;;;;;7.56;52.62;101072.31;10524691;28;20051;-66
2024/01/23 11:55:46;;;;;;;6.25;1.90;;;;;;;7.69;53.05;101053.66;10521332;28;20056;-67
2024/01/23 12:00:48;;;;;;;7.95;2.08;;;;;;;7.57;52.27;101048.84;10528883;28;20048;-67
2024/01/23 12:05:52;;;;;;;8.38;1.45;;;;;;;7.39;53.11;101058.94;10520531;28;20079;-66
2024/01/23 12:10:57;;;;;;;6.80;1.70;;;;;;;7.34;53.09;101059.09;10523064;28;20043;-65
2024/01/23 12:15:59;;;;;;;14.38;1.88;;;;;;;7.31;53.31;101066.97;10522832;28;20048;-66
2024/01/23 12:21:03;;;;;;;4.85;1.55;;;;;;;7.31;52.55;101061.75;10522465;28;20134;-66
2024/01/23 12:26:06;;;;;;;4.57;1.55;;;;;;;7.52;52.82;101027.31;10501853;28;20040;-66
2024/01/23 12:31:11;;;;;;;9.02;1.70;;;;;;;7.89;52.34;101035.72;10502449;28;20040;-66
2024/01/23 12:36:16;;;;;;;9.43;2.30;;;;;;;7.94;50.81;101023.38;10523083;28;20051;-66
2024/01/23 12:41:19;;;;;;;2.40;1.27;;;;;;;8.27;51.93;101012.78;10521962;28;20514;-67
2024/01/23 12:46:21;;;;;;;4.47;1.27;;;;;;;8.27;51.44;101031.03;10521411;27;20622;-67
2024/01/23 12:51:29;;;;;;;4.95;1.60;;;;;;;8.44;52.00;101033.97;10521756;27;20040;-66
2024/01/23 12:56:32;;;;;;;5.53;1.67;;;;;;;8.15;51.35;101023.63;10520907;28;20076;-67
2024/01/23 13:01:34;;;;;;;6.38;2.55;;;;;;;8.28;51.31;101017.13;10519144;28;20057;-67
2024/01/23 13:06:37;;;;;;;7.97;1.83;;;;;;;8.30;51.55;101010.97;10518896;28;20044;-66
2024/01/23 13:11:41;;;;;;;6.85;2.65;;;;;;;8.18;51.42;101006.13;10502058;28;20050;-67
2024/01/23 13:16:43;;;;;;;7.82;3.08;;;;;;;8.26;51.47;100991.09;10524683;28;20404;-66
2024/01/23 13:21:46;;;;;;;5.82;1.55;;;;;;;8.06;51.21;100980.44;10518049;28;20175;-66
2024/01/23 13:26:49;;;;;;;4.80;1.85;;;;;;;8.25;51.88;100978.13;10518374;28;20048;-66
2024/01/23 13:31:52;;;;;;;8.98;1.80;;;;;;;8.08;51.89;100977.81;10525285;28;20048;-66
2024/01/23 13:36:54;;;;;;;6.53;1.42;;;;;;;8.14;52.07;100982.84;10521599;28;20381;-66
2024/01/23 13:41:57;;;;;;;8.05;1.85;;;;;;;8.01;52.34;101008.41;10524875;28;20048;-66
2024/01/23 13:46:59;;;;;;;8.20;2.47;;;;;;;7.85;52.69;101010.63;10517879;28;20058;-66
2024/01/23 13:52:03;;;;;;;7.07;1.80;;;;;;;7.98;52.79;100998.06;10517698;28;20052;-66
2024/01/23 13:57:06;;;;;;;4.97;2.17;;;;;;;7.95;52.72;100988.63;10523275;28;20141;-66
2024/01/23 14:02:09;;;;;;;7.10;1.63;;;;;;;7.90;53.17;100990.53;10534749;28;20171;-67
2024/01/23 14:07:11;;;;;;;3.17;1.25;;;;;;;7.88;52.98;100984.50;10523810;28;20052;-66
2024/01/23 14:12:13;;;;;;;7.32;2.13;;;;;;;7.93;53.13;100982.63;10517584;28;20483;-66
2024/01/23 14:17:15;;;;;;;8.52;1.77;;;;;;;7.94;53.25;100973.91;10527998;28;20040;-66
2024/01/23 14:22:18;;;;;;;7.97;1.65;;;;;;;7.83;53.17;100968.16;10528565;28;20124;-66
2024/01/23 14:27:20;;;;;;;8.85;2.35;;;;;;;7.98;53.24;100985.06;10526883;28;20048;-66
2024/01/23 14:32:22;;;;;;;3.78;1.20;;;;;;;8.09;53.29;100996.00;10525290;27;20051;-67
2024/01/23 14:37:28;;;;;;;2.80;1.40;;;;;;;8.25;53.31;100992.00;10510989;28;20052;-66
2024/01/23 14:42:31;;;;;;;9.10;1.95;;;;;;;8.21;53.33;100998.22;10520393;27;20036;-66
2024/01/23 14:47:35;;;;;;;5.00;2.08;;;;;;;8.28;53.69;100980.63;10524522;28;20054;-67
2024/01/23 14:52:38;;;;;;;12.02;1.98;;;;;;;8.09;53.96;100982.09;10507818;28;20043;-66
2024/01/23 14:57:42;;;;;;;8.55;3.45;;;;;;;8.03;54.42;100957.97;10524619;28;20774;-67
2024/01/23 15:02:46;;;;;;;3.50;1.58;;;;;;;7.78;54.61;100954.47;10524558;28;20585;-66
2024/01/23 15:07:48;;;;;;;6.78;2.20;;;;;;;7.64;54.96;100961.00;10505806;28;20052;-66
2024/01/23 15:12:51;;;;;;;3.22;1.40;;;;;;;7.62;55.24;100965.41;10523571;28;20496;-65
2024/01/23 15:17:55;;;;;;;6.40;2.17;;;;;;;7.58;55.40;100956.84;10522811;28;20807;-66
2024/01/23 15:22:57;;;;;;;7.38;1.83;;;;;;;7.54;55.59;100954.38;10523133;28;20051;-65
2024/01/23 15:27:59;;;;;;;5.65;1.80;;;;;;;7.58;55.53;100956.84;10530090;28;20097;-66
2024/01/23 15:33:01;;;;;;;10.02;1.80;;;;;;;7.42;56.03;100968.63;10504198;28;20135;-66
2024/01/23 15:38:04;;;;;;;9.73;2.63;;;;;;;7.47;56.12;100958.09;10520644;28;20151;-66
2024/01/23 15:43:08;;;;;;;6.97;1.95;;;;;;;7.42;56.55;100945.22;10505045;28;20050;-66
2024/01/23 15:48:16;;;;;;;4.65;1.55;;;;;;;7.57;56.80;100946.50;10533142;28;20117;-65
2024/01/23 15:53:18;;;;;;;6.65;2.25;;;;;;;7.55;56.92;100936.09;10509163;28;20048;-66
2024/01/23 15:58:20;;;;;;;11.20;1.75;;;;;;;7.52;57.41;100925.78;10525641;28;20052;-65
2024/01/23 16:03:22;;;;;;;6.15;2.45;;;;;;;7.34;58.16;100918.56;10512190;28;20094;-66
2024/01/23 16:08:24;;;;;;;8.50;2.35;;;;;;;7.38;58.37;100919.31;10522281;28;20032;-68
2024/01/23 16:13:26;;;;;;;5.68;1.38;;;;;;;7.31;58.89;100916.03;10525801;28;20130;-66
2024/01/23 16:18:28;;;;;;;7.10;1.88;;;;;;;7.25;59.39;100921.44;10520784;28;20799;-67
2024/01/23 16:23:32;;;;;;;6.90;1.92;;;;;;;7.18;59.66;100907.75;10508185;28;20549;-64
2024/01/23 16:28:34;;;;;;;7.68;2.78;;;;;;;7.02;60.16;100893.50;10525800;27;20051;-64
2024/01/23 16:33:36;;;;;;;4.60;1.67;;;;;;;6.93;60.92;100891.19;10522568;27;20152;-64
2024/01/23 16:38:38;;;;;;;8.00;1.77;;;;;;;6.90;61.11;100888.69;10521937;28;20056;-64
2024/01/23 16:43:40;;;;;;;4.53;1.77;;;;;;;6.84;61.51;100890.59;10524654;28;20043;-64
2024/01/23 16:48:47;;;;;;;5.03;2.05;;;;;;;6.83;61.66;100910.56;10524889;27;20040;-63
2024/01/23 16:53:50;;;;;;;6.72;1.77;;;;;;;6.78;62.39;100903.78;10519179;28;20498;-63
2024/01/23 16:58:52;;;;;;;11.07;2.40;;;;;;;6.79;62.41;100898.56;10519758;28;20048;-63
2024/01/23 17:03:54;;;;;;;7.65;1.98;;;;;;;6.85;62.67;100889.72;10515752;28;20077;-64
2024/01/23 17:08:56;;;;;;;5.97;1.77;;;;;;;6.86;62.60;100866.25;10518248;27;20052;-63
2024/01/23 17:13:58;;;;;;;7.85;2.58;;;;;;;6.84;62.99;100857.66;10519510;28;20097;-63
2024/01/23 17:19:10;;;;;;;6.03;2.33;;;;;;;6.77;63.27;100853.56;10529538;28;20160;-64
2024/01/23 17:24:13;;;;;;;6.40;2.15;;;;;;;6.78;63.43;100854.38;10522862;28;20056;-63
2024/01/23 17:29:15;;;;;;;6.13;2.03;;;;;;;6.83;63.41;100848.16;10517290;28;20051;-64
2024/01/23 17:34:17;;;;;;;5.50;1.77;;;;;;;6.80;63.64;100850.00;10521832;28;20120;-63
2024/01/23 17:39:19;;;;;;;5.00;1.70;;;;;;;6.85;63.73;100837.72;10517589;28;20063;-64
2024/01/23 17:44:22;;;;;;;3.72;1.70;;;;;;;6.90;63.84;100838.41;10506204;28;20040;-63
2024/01/23 17:49:24;;;;;;;7.55;1.88;;;;;;;6.87;63.98;100828.13;10518217;28;20076;-63
2024/01/23 17:54:26;;;;;;;5.82;1.60;;;;;;;6.90;63.94;100821.06;10522923;28;20048;-63
2024/01/23 17:59:28;;;;;;;9.18;2.00;;;;;;;6.81;64.63;100810.97;10494577;28;20138;-63
2024/01/23 18:04:30;;;;;;;11.90;2.03;;;;;;;6.88;65.06;100796.00;10519098;28;20129;-63
2024/01/23 18:09:33;;;;;;;6.32;1.75;;;;;;;6.95;64.53;100792.34;10484913;28;20450;-64
2024/01/23 18:14:37;;;;;;;3.10;1.80;;;;;;;6.95;64.49;100780.19;10517414;28;20035;-64
2024/01/23 18:19:39;;;;;;;2.13;1.20;;;;;;;7.03;64.50;100782.53;10527246;28;20044;-64
2024/01/23 18:24:42;;;;;;;7.65;1.90;;;;;;;6.92;64.96;100753.41;10532665;28;20098;-63
2024/01/23 18:29:45;;;;;;;5.25;1.60;;;;;;;6.86;65.16;100764.84;10505577;28;20062;-64
2024/01/23 18:34:47;;;;;;;4.03;1.60;;;;;;;6.93;65.12;100744.72;10522079;28;20450;-64
2024/01/23 18:39:51;;;;;;;7.38;1.35;;;;;;;7.06;65.06;100738.25;10515607;28;20520;-64
2024/01/23 18:44:53;;;;;;;1.63;1.17;;;;;;;7.09;65.07;100730.31;10499793;28;20050;-64
2024/01/23 18:49:57;;;;;;;6.57;1.60;;;;;;;7.13;65.03;100706.75;10497567;28;20051;-64
2024/01/23 18:55:00;;;;;;;2.00;1.13;;;;;;;7.12;65.30;100671.22;10517801;28;20652;-64
2024/01/23 19:00:06;;;;;;;3.63;1.42;;;;;;;7.17;65.44;100681.50;10516207;28;20243;-64
2024/01/23 19:05:09;;;;;;;3.78;1.63;;;;;;;7.14;65.55;100666.00;10522677;27;20059;-64
2024/01/23 19:10:12;;;;;;;3.80;1.70;;;;;;;7.23;65.11;100670.03;10524139;28;20491;-64
2024/01/23 19:15:15;;;;;;;2.17;1.02;;;;;;;7.20;65.05;100648.41;10523734;27;20408;-64
2024/01/23 19:20:17;;;;;;;5.20;2.08;;;;;;;7.08;65.99;100642.81;10523004;28;20412;-63
2024/01/23 19:25:19;;;;;;;3.67;1.35;;;;;;;7.14;65.51;100613.97;10510836;28;20052;-63
2024/01/23 19:30:21;;;;;;;5.30;1.52;;;;;;;7.11;65.75;100624.47;10530245;28;20366;-64
2024/01/23 19:35:24;;;;;;;6.80;1.73;;;;;;;7.15;65.65;100624.31;10529723;28;20412;-64
2024/01/23 19:40:27;;;;;;;2.90;1.33;;;;;;;7.08;65.90;100609.81;10524311;27;20061;-64
2024/01/23 19:45:29;;;;;;;2.47;1.27;;;;;;;7.08;66.08;100617.63;10524713;28;20129;-64
2024/01/23 19:50:31;;;;;;;6.78;1.48;;;;;;;7.18;65.95;100612.97;10521279;27;20155;-63
2024/01/23 19:55:33;;;;;;;2.67;1.58;;;;;;;7.17;65.93;100613.84;10535168;27;20503;-64
2024/01/23 20:00:35;;;;;;;4.38;1.98;;;;;;;7.18;65.98;100603.38;10526160;28;20059;-64
2024/01/23 20:05:37;;;;;;;4.72;1.83;;;;;;;7.33;65.83;100588.13;10547444;27;20144;-63
2024/01/23 20:10:39;;;;;;;11.10;4.53;;;;;;;7.29;65.74;100557.94;10532837;28;20043;-64
2024/01/23 20:15:42;;;;;;;9.65;2.20;;;;;;;7.28;65.82;100548.44;10534876;28;20052;-63
2024/01/23 20:20:44;;;;;;;4.10;1.48;;;;;;;7.33;65.80;100542.16;10530481;28;20048;-63
2024/01/23 20:25:46;;;;;;;3.45;1.40;;;;;;;7.27;65.99;100531.97;10527403;28;20449;-63
2024/01/23 20:30:49;;;;;;;4.90;1.17;;;;;;;7.34;65.89;100525.66;10528359;28;20072;-63
2024/01/23 20:35:53;;;;;;;8.35;1.73;;;;;;;7.36;65.98;100513.44;10496101;28;20044;-63
2024/01/23 20:40:56;;;;;;;4.93;1.95;;;;;;;7.44;65.88;100500.13;10529224;28;20067;-64
2024/01/23 20:45:58;;;;;;;4.05;1.15;;;;;;;7.45;65.95;100496.63;10531168;28;20858;-63
2024/01/23 20:51:00;;;;;;;7.22;1.63;;;;;;;7.49;65.92;100493.84;10524390;28;20083;-63
2024/01/23 20:56:03;;;;;;;8.32;1.42;;;;;;;7.47;66.42;100508.66;10513575;28;20151;-63
2024/01/23 21:01:06;;;;;;;4.30;1.25;;;;;;;7.58;66.08;100503.91;10529354;28;20070;-64
2024/01/23 21:06:09;;;;;;;2.95;1.08;;;;;;;7.57;66.50;100497.00;10522192;28;20050;-63
2024/01/23 21:11:12;;;;;;;3.25;1.50;;;;;;;7.66;66.45;100516.63;10531600;28;20040;-63
2024/01/23 21:16:15;;;;;;;4.95;1.98;;;;;;;7.72;66.95;100486.00;10527754;28;20101;-63
2024/01/23 21:21:17;;;;;;;4.60;1.25;;;;;;;7.76;66.72;100461.53;10530079;28;20636;-63
2024/01/23 21:26:19;;;;;;;4.28;1.10;;;;;;;7.70;67.69;100453.97;10537271;27;20123;-63
2024/01/23 21:31:21;;;;;;;5.38;1.20;;;;;;;7.75;67.47;100448.59;10516889;28;20046;-63
2024/01/23 21:36:24;;;;;;;7.85;1.45;;;;;;;7.90;67.05;100433.19;10528163;28;20515;-63
2024/01/23 21:41:26;;;;;;;2.83;0.88;;;;;;;7.95;66.95;100440.81;10521644;28;20934;-63
2024/01/23 21:46:28;;;;;;;4.43;1.33;;;;;;;7.98;67.15;100427.66;10518232;28;20071;-63
2024/01/23 21:51:31;;;;;;;3.10;1.02;;;;;;;8.08;66.86;100428.97;10516672;28;20054;-63
2024/01/23 21:56:33;;;;;;;2.22;0.90;;;;;;;8.13;66.87;100418.38;10500864;28;20653;-63
2024/01/23 22:01:35;;;;;;;3.63;1.55;;;;;;;8.23;66.76;100430.13;10524975;28;20127;-63
2024/01/23 22:06:38;;;;;;;5.63;1.20;;;;;;;8.37;66.46;100412.13;10525839;28;20135;-63
2024/01/23 22:11:41;;;;;;;2.58;0.60;;;;;;;8.39;66.57;100407.69;10522523;28;20063;-63
2024/01/23 22:16:44;;;;;;;0.93;0.80;;;;;;;8.50;66.38;100410.69;10524388;28;20071;-63
2024/01/23 22:21:47;;;;;;;1.77;0.82;;;;;;;8.61;66.24;100387.59;10526374;28;20158;-62
2024/01/23 22:26:49;;;;;;;2.22;1.05;;;;;;;8.53;66.60;100393.16;10516663;28;20063;-62
2024/01/23 22:31:53;;;;;;;2.30;1.00;;;;;;;8.66;66.40;100368.25;10524514;28;20050;-62
2024/01/23 22:36:55;;;;;;;1.52;0.70;;;;;;;8.74;66.31;100355.72;10516394;28;20438;-62
2024/01/23 22:41:57;;;;;;;1.50;0.73;;;;;;;8.71;66.89;100354.97;10552107;27;20075;-62
2024/01/23 22:47:02;;;;;;;0.50;0.50;;;;;;;8.88;66.42;100354.22;10542118;28;20047;-62
2024/01/23 22:52:05;;;;;;;1.20;0.63;;;;;;;8.85;66.75;100343.00;10528872;28;20531;-62
2024/01/23 22:57:07;;;;;;;1.38;0.75;;;;;;;8.84;66.85;100351.75;10551060;27;20040;-62
2024/01/23 23:02:09;;;;;;;0.47;0.47;;;;;;;8.98;66.68;100340.69;10534613;28;20040;-62
2024/01/23 23:07:12;;;;;;;7.32;1.05;;;;;;;9.14;66.34;100346.00;10525058;28;20048;-61
2024/01/23 23:12:14;;;;;;;1.33;0.50;;;;;;;9.13;66.76;100347.78;10511203;27;20518;-62
2024/01/23 23:17:16;;;;;;;1.05;0.50;;;;;;;9.20;66.68;100346.56;10524596;27;20052;-62
2024/01/23 23:22:18;;;;;;;1.27;0.60;;;;;;;9.27;66.18;100334.94;10525137;27;20557;-62
2024/01/23 23:27:20;;;;;;;0.98;0.70;;;;;;;9.42;66.01;100313.28;10506595;28;20400;-61